sensor_id;sensor_type;location;lat;lon;timestamp;P1;durP1;ratioP1;P2;durP2;ratioP2
65150;SDS011;51918;51.856;0.150;2022-10-19T00:03:02;5.25;;;1.73;;
65150;SDS011;51918;51.856;0.150;2022-10-19T00:08:02;4.38;;;1.25;;
65150;SDS011;51918;51.856;0.150;2022-10-19T00:13:04;7.57;;;1.58;;
65150;SDS011;51918;51.856;0.150;2022-10-19T00:18:05;5.30;;;1.30;;
65150;SDS011;51918;51.856;0.150;2022-10-19T00:23:06;3.90;;;1.13;;
65150;SDS011;51918;51.856;0.150;2022-10-19T00:28:08;5.35;;;1.70;;
65150;SDS011;51918;51.856;0.150;2022-10-19T00:33:08;7.20;;;1.80;;
65150;SDS011;51918;51.856;0.150;2022-10-19T00:38:09;6.50;;;1.42;;
65150;SDS011;51918;51.856;0.150;2022-10-19T00:43:13;8.88;;;1.73;;
65150;SDS011;51918;51.856;0.150;2022-10-19T00:48:15;5.22;;;1.60;;
65150;SDS011;51918;51.856;0.150;2022-10-19T00:53:18;6.13;;;2.10;;
65150;SDS011;51918;51.856;0.150;2022-10-19T00:58:21;5.82;;;1.40;;
65150;SDS011;51918;51.856;0.150;2022-10-19T01:03:22;8.60;;;1.38;;
65150;SDS011;51918;51.856;0.150;2022-10-19T01:08:22;6.25;;;2.13;;
65150;SDS011;51918;51.856;0.150;2022-10-19T01:13:27;7.07;;;1.40;;
65150;SDS011;51918;51.856;0.150;2022-10-19T01:18:40;6.68;;;1.63;;
65150;SDS011;51918;51.856;0.150;2022-10-19T01:29:25;5.97;;;2.03;;
65150;SDS011;51918;51.856;0.150;2022-10-19T01:34:39;4.65;;;1.40;;
65150;SDS011;51918;51.856;0.150;2022-10-19T01:39:49;10.15;;;1.50;;
65150;SDS011;51918;51.856;0.150;2022-10-19T01:44:56;7.28;;;1.50;;
65150;SDS011;51918;51.856;0.150;2022-10-19T01:50:05;7.07;;;1.40;;
65150;SDS011;51918;51.856;0.150;2022-10-19T01:55:12;6.57;;;1.58;;
65150;SDS011;51918;51.856;0.150;2022-10-19T02:00:17;6.60;;;1.50;;
65150;SDS011;51918;51.856;0.150;2022-10-19T02:05:21;8.98;;;1.67;;
65150;SDS011;51918;51.856;0.150;2022-10-19T02:10:27;5.43;;;1.65;;
65150;SDS011;51918;51.856;0.150;2022-10-19T02:15:30;3.70;;;1.17;;
65150;SDS011;51918;51.856;0.150;2022-10-19T02:20:39;8.02;;;1.98;;
65150;SDS011;51918;51.856;0.150;2022-10-19T02:25:39;7.70;;;1.42;;
65150;SDS011;51918;51.856;0.150;2022-10-19T02:30:40;6.32;;;1.52;;
65150;SDS011;51918;51.856;0.150;2022-10-19T02:35:42;5.20;;;1.65;;
65150;SDS011;51918;51.856;0.150;2022-10-19T02:40:44;7.15;;;1.70;;
65150;SDS011;51918;51.856;0.150;2022-10-19T02:50:56;6.40;;;1.60;;
65150;SDS011;51918;51.856;0.150;2022-10-19T02:55:57;5.28;;;1.58;;
65150;SDS011;51918;51.856;0.150;2022-10-19T03:00:57;8.98;;;1.92;;
65150;SDS011;51918;51.856;0.150;2022-10-19T03:05:59;5.55;;;1.70;;
65150;SDS011;51918;51.856;0.150;2022-10-19T03:11:00;7.82;;;1.63;;
65150;SDS011;51918;51.856;0.150;2022-10-19T03:16:07;6.68;;;1.50;;
65150;SDS011;51918;51.856;0.150;2022-10-19T03:21:11;4.18;;;1.25;;
65150;SDS011;51918;51.856;0.150;2022-10-19T03:26:13;13.55;;;2.20;;
65150;SDS011;51918;51.856;0.150;2022-10-19T03:31:15;7.15;;;1.75;;
65150;SDS011;51918;51.856;0.150;2022-10-19T03:36:18;5.60;;;1.95;;
65150;SDS011;51918;51.856;0.150;2022-10-19T03:41:21;5.97;;;1.75;;
65150;SDS011;51918;51.856;0.150;2022-10-19T03:46:22;7.85;;;1.70;;
65150;SDS011;51918;51.856;0.150;2022-10-19T03:51:25;5.97;;;1.65;;
65150;SDS011;51918;51.856;0.150;2022-10-19T03:56:27;6.15;;;1.48;;
65150;SDS011;51918;51.856;0.150;2022-10-19T04:01:30;4.45;;;1.35;;
65150;SDS011;51918;51.856;0.150;2022-10-19T04:06:35;10.70;;;1.80;;
65150;SDS011;51918;51.856;0.150;2022-10-19T04:11:36;7.90;;;1.60;;
65150;SDS011;51918;51.856;0.150;2022-10-19T04:16:37;8.88;;;1.77;;
65150;SDS011;51918;51.856;0.150;2022-10-19T04:21:39;9.07;;;1.83;;
65150;SDS011;51918;51.856;0.150;2022-10-19T04:26:41;6.00;;;1.48;;
65150;SDS011;51918;51.856;0.150;2022-10-19T04:31:42;6.38;;;1.92;;
65150;SDS011;51918;51.856;0.150;2022-10-19T04:36:44;11.20;;;1.90;;
65150;SDS011;51918;51.856;0.150;2022-10-19T04:41:44;7.57;;;2.17;;
65150;SDS011;51918;51.856;0.150;2022-10-19T04:46:45;10.23;;;2.63;;
65150;SDS011;51918;51.856;0.150;2022-10-19T04:51:47;9.68;;;1.65;;
65150;SDS011;51918;51.856;0.150;2022-10-19T04:56:48;6.22;;;1.85;;
65150;SDS011;51918;51.856;0.150;2022-10-19T05:01:48;10.85;;;1.98;;
65150;SDS011;51918;51.856;0.150;2022-10-19T05:06:50;6.15;;;1.80;;
65150;SDS011;51918;51.856;0.150;2022-10-19T05:11:51;8.05;;;2.85;;
65150;SDS011;51918;51.856;0.150;2022-10-19T05:16:51;12.40;;;1.83;;
65150;SDS011;51918;51.856;0.150;2022-10-19T05:21:53;10.63;;;1.90;;
65150;SDS011;51918;51.856;0.150;2022-10-19T05:26:54;8.65;;;2.00;;
65150;SDS011;51918;51.856;0.150;2022-10-19T05:31:54;5.93;;;1.38;;
65150;SDS011;51918;51.856;0.150;2022-10-19T05:36:56;11.88;;;2.25;;
65150;SDS011;51918;51.856;0.150;2022-10-19T05:41:57;12.48;;;2.50;;
65150;SDS011;51918;51.856;0.150;2022-10-19T05:46:57;10.80;;;2.25;;
65150;SDS011;51918;51.856;0.150;2022-10-19T05:52:00;9.48;;;2.28;;
65150;SDS011;51918;51.856;0.150;2022-10-19T05:57:00;6.07;;;1.88;;
65150;SDS011;51918;51.856;0.150;2022-10-19T06:02:01;14.20;;;2.97;;
65150;SDS011;51918;51.856;0.150;2022-10-19T06:07:03;6.38;;;2.17;;
65150;SDS011;51918;51.856;0.150;2022-10-19T06:12:03;8.73;;;2.97;;
65150;SDS011;51918;51.856;0.150;2022-10-19T06:17:04;14.45;;;4.03;;
65150;SDS011;51918;51.856;0.150;2022-10-19T06:22:06;7.78;;;1.95;;
65150;SDS011;51918;51.856;0.150;2022-10-19T06:27:06;11.15;;;2.15;;
65150;SDS011;51918;51.856;0.150;2022-10-19T06:32:07;8.05;;;2.58;;
65150;SDS011;51918;51.856;0.150;2022-10-19T06:37:09;8.93;;;2.20;;
65150;SDS011;51918;51.856;0.150;2022-10-19T06:42:09;9.65;;;2.88;;
65150;SDS011;51918;51.856;0.150;2022-10-19T06:47:10;10.95;;;2.45;;
65150;SDS011;51918;51.856;0.150;2022-10-19T06:52:12;10.43;;;2.72;;
65150;SDS011;51918;51.856;0.150;2022-10-19T06:57:12;4.57;;;2.10;;
65150;SDS011;51918;51.856;0.150;2022-10-19T07:02:13;12.45;;;2.78;;
65150;SDS011;51918;51.856;0.150;2022-10-19T07:07:15;14.38;;;2.72;;
65150;SDS011;51918;51.856;0.150;2022-10-19T07:12:16;10.70;;;2.70;;
65150;SDS011;51918;51.856;0.150;2022-10-19T07:17:16;10.23;;;2.40;;
65150;SDS011;51918;51.856;0.150;2022-10-19T07:22:18;10.40;;;2.28;;
65150;SDS011;51918;51.856;0.150;2022-10-19T07:27:19;8.77;;;1.98;;
65150;SDS011;51918;51.856;0.150;2022-10-19T07:32:20;7.15;;;2.00;;
65150;SDS011;51918;51.856;0.150;2022-10-19T07:37:22;6.80;;;2.13;;
65150;SDS011;51918;51.856;0.150;2022-10-19T07:42:22;10.82;;;2.40;;
65150;SDS011;51918;51.856;0.150;2022-10-19T07:47:23;8.18;;;2.40;;
65150;SDS011;51918;51.856;0.150;2022-10-19T07:52:25;11.30;;;2.63;;
65150;SDS011;51918;51.856;0.150;2022-10-19T07:57:25;7.38;;;1.98;;
65150;SDS011;51918;51.856;0.150;2022-10-19T08:02:26;12.02;;;2.67;;
65150;SDS011;51918;51.856;0.150;2022-10-19T08:07:28;7.55;;;1.88;;
65150;SDS011;51918;51.856;0.150;2022-10-19T08:12:28;12.15;;;3.58;;
65150;SDS011;51918;51.856;0.150;2022-10-19T08:17:29;12.43;;;2.97;;
65150;SDS011;51918;51.856;0.150;2022-10-19T08:22:31;10.13;;;1.88;;
65150;SDS011;51918;51.856;0.150;2022-10-19T08:27:32;10.85;;;1.80;;
65150;SDS011;51918;51.856;0.150;2022-10-19T08:32:32;8.70;;;1.75;;
65150;SDS011;51918;51.856;0.150;2022-10-19T08:37:34;9.32;;;1.83;;
65150;SDS011;51918;51.856;0.150;2022-10-19T08:42:39;6.28;;;1.55;;
65150;SDS011;51918;51.856;0.150;2022-10-19T08:47:57;12.30;;;1.70;;
65150;SDS011;51918;51.856;0.150;2022-10-19T08:53:05;7.93;;;1.67;;
65150;SDS011;51918;51.856;0.150;2022-10-19T08:58:13;7.75;;;1.65;;
65150;SDS011;51918;51.856;0.150;2022-10-19T09:03:30;11.93;;;2.08;;
65150;SDS011;51918;51.856;0.150;2022-10-19T09:08:39;12.32;;;2.40;;
65150;SDS011;51918;51.856;0.150;2022-10-19T09:13:41;10.63;;;2.10;;
65150;SDS011;51918;51.856;0.150;2022-10-19T09:18:43;9.10;;;2.28;;
65150;SDS011;51918;51.856;0.150;2022-10-19T09:23:47;6.88;;;1.80;;
65150;SDS011;51918;51.856;0.150;2022-10-19T09:28:56;8.82;;;2.22;;
65150;SDS011;51918;51.856;0.150;2022-10-19T09:34:04;7.43;;;1.67;;
65150;SDS011;51918;51.856;0.150;2022-10-19T09:39:11;6.50;;;1.92;;
65150;SDS011;51918;51.856;0.150;2022-10-19T09:44:12;8.00;;;2.05;;
65150;SDS011;51918;51.856;0.150;2022-10-19T09:49:13;10.07;;;2.05;;
65150;SDS011;51918;51.856;0.150;2022-10-19T09:54:25;12.25;;;2.05;;
65150;SDS011;51918;51.856;0.150;2022-10-19T09:59:34;6.60;;;2.00;;
65150;SDS011;51918;51.856;0.150;2022-10-19T10:04:35;11.85;;;1.95;;
65150;SDS011;51918;51.856;0.150;2022-10-19T10:09:37;10.90;;;1.85;;
65150;SDS011;51918;51.856;0.150;2022-10-19T10:14:42;6.32;;;1.70;;
65150;SDS011;51918;51.856;0.150;2022-10-19T10:19:50;8.40;;;1.70;;
65150;SDS011;51918;51.856;0.150;2022-10-19T10:25:10;6.85;;;1.25;;
65150;SDS011;51918;51.856;0.150;2022-10-19T10:30:14;6.50;;;1.25;;
65150;SDS011;51918;51.856;0.150;2022-10-19T10:35:17;8.05;;;2.00;;
65150;SDS011;51918;51.856;0.150;2022-10-19T10:40:23;5.13;;;1.20;;
65150;SDS011;51918;51.856;0.150;2022-10-19T10:45:28;6.93;;;1.52;;
65150;SDS011;51918;51.856;0.150;2022-10-19T10:50:33;6.60;;;1.20;;
65150;SDS011;51918;51.856;0.150;2022-10-19T10:55:36;8.73;;;1.63;;
65150;SDS011;51918;51.856;0.150;2022-10-19T11:00:37;7.55;;;1.73;;
65150;SDS011;51918;51.856;0.150;2022-10-19T11:05:40;10.68;;;1.63;;
65150;SDS011;51918;51.856;0.150;2022-10-19T11:10:46;5.70;;;1.65;;
65150;SDS011;51918;51.856;0.150;2022-10-19T11:20:55;4.05;;;1.10;;
65150;SDS011;51918;51.856;0.150;2022-10-19T11:26:06;5.13;;;1.30;;
65150;SDS011;51918;51.856;0.150;2022-10-19T11:31:18;13.07;;;4.65;;
65150;SDS011;51918;51.856;0.150;2022-10-19T11:36:27;4.50;;;1.25;;
65150;SDS011;51918;51.856;0.150;2022-10-19T11:41:42;13.48;;;2.33;;
65150;SDS011;51918;51.856;0.150;2022-10-19T11:46:52;8.30;;;2.58;;
65150;SDS011;51918;51.856;0.150;2022-10-19T11:52:03;6.28;;;1.40;;
65150;SDS011;51918;51.856;0.150;2022-10-19T11:57:13;5.68;;;1.33;;
65150;SDS011;51918;51.856;0.150;2022-10-19T12:02:22;7.55;;;1.40;;
65150;SDS011;51918;51.856;0.150;2022-10-19T12:07:50;5.20;;;1.38;;
65150;SDS011;51918;51.856;0.150;2022-10-19T12:13:02;10.13;;;1.50;;
65150;SDS011;51918;51.856;0.150;2022-10-19T12:18:07;6.13;;;1.50;;
65150;SDS011;51918;51.856;0.150;2022-10-19T12:23:16;6.15;;;1.17;;
65150;SDS011;51918;51.856;0.150;2022-10-19T12:28:26;4.70;;;1.67;;
65150;SDS011;51918;51.856;0.150;2022-10-19T12:33:30;8.27;;;1.90;;
65150;SDS011;51918;51.856;0.150;2022-10-19T12:38:41;10.00;;;1.58;;
65150;SDS011;51918;51.856;0.150;2022-10-19T12:43:54;8.40;;;1.30;;
65150;SDS011;51918;51.856;0.150;2022-10-19T12:54:44;7.90;;;1.35;;
65150;SDS011;51918;51.856;0.150;2022-10-19T12:59:47;4.90;;;1.25;;
65150;SDS011;51918;51.856;0.150;2022-10-19T13:04:58;5.50;;;1.52;;
65150;SDS011;51918;51.856;0.150;2022-10-19T13:10:00;4.53;;;1.20;;
65150;SDS011;51918;51.856;0.150;2022-10-19T13:15:04;6.05;;;1.63;;
65150;SDS011;51918;51.856;0.150;2022-10-19T13:25:47;6.45;;;1.30;;
65150;SDS011;51918;51.856;0.150;2022-10-19T13:31:24;8.75;;;1.48;;
65150;SDS011;51918;51.856;0.150;2022-10-19T13:36:27;8.05;;;1.65;;
65150;SDS011;51918;51.856;0.150;2022-10-19T13:41:43;4.43;;;1.35;;
65150;SDS011;51918;51.856;0.150;2022-10-19T13:46:50;3.85;;;1.40;;
65150;SDS011;51918;51.856;0.150;2022-10-19T13:52:03;6.07;;;1.30;;
65150;SDS011;51918;51.856;0.150;2022-10-19T13:57:18;9.43;;;1.98;;
65150;SDS011;51918;51.856;0.150;2022-10-19T14:08:18;3.47;;;1.30;;
65150;SDS011;51918;51.856;0.150;2022-10-19T14:13:32;8.00;;;1.70;;
65150;SDS011;51918;51.856;0.150;2022-10-19T14:23:36;9.13;;;2.47;;
65150;SDS011;51918;51.856;0.150;2022-10-19T14:28:38;5.57;;;1.70;;
65150;SDS011;51918;51.856;0.150;2022-10-19T14:33:40;6.35;;;1.95;;
65150;SDS011;51918;51.856;0.150;2022-10-19T14:38:46;7.82;;;1.77;;
65150;SDS011;51918;51.856;0.150;2022-10-19T14:43:48;9.82;;;2.22;;
65150;SDS011;51918;51.856;0.150;2022-10-19T14:53:51;6.80;;;2.15;;
65150;SDS011;51918;51.856;0.150;2022-10-19T14:58:56;8.63;;;1.92;;
65150;SDS011;51918;51.856;0.150;2022-10-19T15:04:00;7.82;;;2.17;;
65150;SDS011;51918;51.856;0.150;2022-10-19T15:14:05;5.65;;;1.70;;
65150;SDS011;51918;51.856;0.150;2022-10-19T15:19:14;8.60;;;2.03;;
65150;SDS011;51918;51.856;0.150;2022-10-19T15:24:22;9.85;;;1.85;;
65150;SDS011;51918;51.856;0.150;2022-10-19T15:29:27;6.78;;;1.88;;
65150;SDS011;51918;51.856;0.150;2022-10-19T15:34:28;7.90;;;1.90;;
65150;SDS011;51918;51.856;0.150;2022-10-19T15:39:31;9.10;;;1.80;;
65150;SDS011;51918;51.856;0.150;2022-10-19T15:44:39;5.80;;;1.63;;
65150;SDS011;51918;51.856;0.150;2022-10-19T15:49:50;9.27;;;2.00;;
65150;SDS011;51918;51.856;0.150;2022-10-19T15:54:54;7.13;;;2.50;;
65150;SDS011;51918;51.856;0.150;2022-10-19T15:59:56;7.75;;;1.70;;
65150;SDS011;51918;51.856;0.150;2022-10-19T16:04:58;7.10;;;1.63;;
65150;SDS011;51918;51.856;0.150;2022-10-19T16:15:01;5.03;;;1.90;;
65150;SDS011;51918;51.856;0.150;2022-10-19T16:20:01;8.55;;;1.83;;
65150;SDS011;51918;51.856;0.150;2022-10-19T16:25:04;7.90;;;2.15;;
65150;SDS011;51918;51.856;0.150;2022-10-19T16:30:06;7.72;;;1.67;;
65150;SDS011;51918;51.856;0.150;2022-10-19T16:35:07;6.45;;;1.95;;
65150;SDS011;51918;51.856;0.150;2022-10-19T16:40:10;6.97;;;1.70;;
65150;SDS011;51918;51.856;0.150;2022-10-19T16:45:10;6.70;;;1.95;;
65150;SDS011;51918;51.856;0.150;2022-10-19T16:50:11;9.20;;;2.40;;
65150;SDS011;51918;51.856;0.150;2022-10-19T16:55:13;9.15;;;1.70;;
65150;SDS011;51918;51.856;0.150;2022-10-19T17:00:13;7.88;;;1.75;;
65150;SDS011;51918;51.856;0.150;2022-10-19T17:05:14;13.02;;;2.35;;
65150;SDS011;51918;51.856;0.150;2022-10-19T17:10:16;7.70;;;2.22;;
65150;SDS011;51918;51.856;0.150;2022-10-19T17:15:17;7.93;;;2.47;;
65150;SDS011;51918;51.856;0.150;2022-10-19T17:20:17;14.63;;;2.53;;
65150;SDS011;51918;51.856;0.150;2022-10-19T17:25:19;9.95;;;2.63;;
65150;SDS011;51918;51.856;0.150;2022-10-19T17:30:20;12.52;;;2.60;;
65150;SDS011;51918;51.856;0.150;2022-10-19T17:35:21;9.85;;;2.30;;
65150;SDS011;51918;51.856;0.150;2022-10-19T17:40:23;12.40;;;2.60;;
65150;SDS011;51918;51.856;0.150;2022-10-19T17:45:23;8.48;;;2.78;;
65150;SDS011;51918;51.856;0.150;2022-10-19T17:50:24;18.45;;;3.58;;
65150;SDS011;51918;51.856;0.150;2022-10-19T17:55:26;13.32;;;3.15;;
65150;SDS011;51918;51.856;0.150;2022-10-19T18:06:05;11.48;;;2.75;;
65150;SDS011;51918;51.856;0.150;2022-10-19T18:11:13;12.13;;;3.35;;
65150;SDS011;51918;51.856;0.150;2022-10-19T18:16:15;13.60;;;3.10;;
65150;SDS011;51918;51.856;0.150;2022-10-19T18:21:18;12.18;;;2.78;;
65150;SDS011;51918;51.856;0.150;2022-10-19T18:26:26;15.50;;;3.20;;
65150;SDS011;51918;51.856;0.150;2022-10-19T18:31:28;11.98;;;3.13;;
65150;SDS011;51918;51.856;0.150;2022-10-19T18:36:30;10.00;;;3.08;;
65150;SDS011;51918;51.856;0.150;2022-10-19T18:41:32;9.35;;;3.08;;
65150;SDS011;51918;51.856;0.150;2022-10-19T18:46:34;14.68;;;3.50;;
65150;SDS011;51918;51.856;0.150;2022-10-19T18:51:35;16.65;;;4.32;;
65150;SDS011;51918;51.856;0.150;2022-10-19T18:56:37;14.02;;;2.92;;
65150;SDS011;51918;51.856;0.150;2022-10-19T19:01:38;10.05;;;2.90;;
65150;SDS011;51918;51.856;0.150;2022-10-19T19:06:38;11.15;;;3.45;;
65150;SDS011;51918;51.856;0.150;2022-10-19T19:11:40;16.33;;;3.38;;
65150;SDS011;51918;51.856;0.150;2022-10-19T19:16:41;11.20;;;3.35;;
65150;SDS011;51918;51.856;0.150;2022-10-19T19:21:43;13.60;;;3.40;;
65150;SDS011;51918;51.856;0.150;2022-10-19T19:26:46;12.50;;;3.35;;
65150;SDS011;51918;51.856;0.150;2022-10-19T19:31:49;13.85;;;3.70;;
65150;SDS011;51918;51.856;0.150;2022-10-19T19:36:50;11.88;;;4.00;;
65150;SDS011;51918;51.856;0.150;2022-10-19T19:41:52;11.35;;;3.08;;
65150;SDS011;51918;51.856;0.150;2022-10-19T19:46:52;13.13;;;3.22;;
65150;SDS011;51918;51.856;0.150;2022-10-19T19:51:53;14.57;;;4.53;;
65150;SDS011;51918;51.856;0.150;2022-10-19T19:56:55;13.63;;;3.17;;
65150;SDS011;51918;51.856;0.150;2022-10-19T20:01:56;9.57;;;3.25;;
65150;SDS011;51918;51.856;0.150;2022-10-19T20:06:56;11.70;;;4.28;;
65150;SDS011;51918;51.856;0.150;2022-10-19T20:11:58;12.52;;;4.60;;
65150;SDS011;51918;51.856;0.150;2022-10-19T20:16:59;12.88;;;4.05;;
65150;SDS011;51918;51.856;0.150;2022-10-19T20:21:59;13.13;;;4.40;;
65150;SDS011;51918;51.856;0.150;2022-10-19T20:27:01;10.90;;;3.97;;
65150;SDS011;51918;51.856;0.150;2022-10-19T20:32:02;18.63;;;5.65;;
65150;SDS011;51918;51.856;0.150;2022-10-19T20:37:03;11.57;;;4.38;;
65150;SDS011;51918;51.856;0.150;2022-10-19T20:42:05;12.90;;;4.70;;
65150;SDS011;51918;51.856;0.150;2022-10-19T20:47:05;17.55;;;5.15;;
65150;SDS011;51918;51.856;0.150;2022-10-19T20:52:06;18.10;;;5.20;;
65150;SDS011;51918;51.856;0.150;2022-10-19T20:57:08;19.23;;;5.15;;
65150;SDS011;51918;51.856;0.150;2022-10-19T21:02:08;17.52;;;5.57;;
65150;SDS011;51918;51.856;0.150;2022-10-19T21:07:09;16.83;;;5.32;;
65150;SDS011;51918;51.856;0.150;2022-10-19T21:12:11;17.63;;;6.18;;
65150;SDS011;51918;51.856;0.150;2022-10-19T21:17:12;18.55;;;5.15;;
65150;SDS011;51918;51.856;0.150;2022-10-19T21:22:12;17.17;;;5.80;;
65150;SDS011;51918;51.856;0.150;2022-10-19T21:27:14;16.85;;;5.68;;
65150;SDS011;51918;51.856;0.150;2022-10-19T21:32:15;20.05;;;5.57;;
65150;SDS011;51918;51.856;0.150;2022-10-19T21:37:16;17.35;;;5.80;;
65150;SDS011;51918;51.856;0.150;2022-10-19T21:42:18;18.10;;;5.25;;
65150;SDS011;51918;51.856;0.150;2022-10-19T21:47:18;24.77;;;5.57;;
65150;SDS011;51918;51.856;0.150;2022-10-19T21:52:19;17.20;;;7.25;;
65150;SDS011;51918;51.856;0.150;2022-10-19T21:57:21;19.13;;;5.63;;
65150;SDS011;51918;51.856;0.150;2022-10-19T22:02:21;16.52;;;6.55;;
65150;SDS011;51918;51.856;0.150;2022-10-19T22:07:22;18.98;;;6.82;;
65150;SDS011;51918;51.856;0.150;2022-10-19T22:12:24;16.25;;;6.45;;
65150;SDS011;51918;51.856;0.150;2022-10-19T22:17:24;21.88;;;7.40;;
65150;SDS011;51918;51.856;0.150;2022-10-19T22:22:25;19.17;;;6.00;;
65150;SDS011;51918;51.856;0.150;2022-10-19T22:27:27;18.05;;;7.00;;
65150;SDS011;51918;51.856;0.150;2022-10-19T22:32:27;17.27;;;6.90;;
65150;SDS011;51918;51.856;0.150;2022-10-19T22:37:28;23.02;;;7.60;;
65150;SDS011;51918;51.856;0.150;2022-10-19T22:42:30;22.63;;;7.30;;
65150;SDS011;51918;51.856;0.150;2022-10-19T22:47:30;18.52;;;7.30;;
65150;SDS011;51918;51.856;0.150;2022-10-19T22:52:31;18.20;;;7.55;;
65150;SDS011;51918;51.856;0.150;2022-10-19T22:57:33;19.13;;;7.43;;
65150;SDS011;51918;51.856;0.150;2022-10-19T23:02:33;26.13;;;8.07;;
65150;SDS011;51918;51.856;0.150;2022-10-19T23:07:34;24.15;;;7.50;;
65150;SDS011;51918;51.856;0.150;2022-10-19T23:12:36;24.55;;;8.77;;
65150;SDS011;51918;51.856;0.150;2022-10-19T23:17:37;19.83;;;8.07;;
65150;SDS011;51918;51.856;0.150;2022-10-19T23:22:37;22.75;;;9.07;;
65150;SDS011;51918;51.856;0.150;2022-10-19T23:27:39;22.23;;;8.98;;
65150;SDS011;51918;51.856;0.150;2022-10-19T23:32:40;27.25;;;9.70;;
65150;SDS011;51918;51.856;0.150;2022-10-19T23:37:41;21.05;;;8.57;;
65150;SDS011;51918;51.856;0.150;2022-10-19T23:42:43;24.38;;;9.60;;
65150;SDS011;51918;51.856;0.150;2022-10-19T23:47:43;22.88;;;8.55;;
65150;SDS011;51918;51.856;0.150;2022-10-19T23:52:44;21.70;;;9.27;;
65150;SDS011;51918;51.856;0.150;2022-10-19T23:57:46;25.25;;;10.27;;
